createdAt,value
2022-11-26T00:02:25.050Z,8.95
2022-11-26T00:05:16.773Z,9.90
2022-11-26T00:08:05.035Z,10.30
2022-11-26T00:10:54.025Z,9.00
2022-11-26T00:13:41.367Z,9.60
2022-11-26T00:16:29.942Z,9.18
2022-11-26T00:19:17.066Z,8.30
2022-11-26T00:22:04.048Z,8.50
2022-11-26T00:24:51.833Z,8.48
2022-11-26T00:27:39.040Z,9.20
2022-11-26T00:30:28.201Z,8.40
2022-11-26T00:33:15.670Z,8.90
2022-11-26T00:36:09.249Z,8.28
2022-11-26T00:38:59.788Z,8.33
2022-11-26T00:41:53.204Z,7.83
2022-11-26T00:44:40.707Z,8.85
2022-11-26T00:47:27.822Z,8.65
2022-11-26T00:50:17.714Z,8.33
2022-11-26T00:53:06.581Z,8.85
2022-11-26T00:55:53.805Z,8.60
2022-11-26T00:58:41.098Z,9.40
2022-11-26T01:01:28.790Z,7.75
2022-11-26T01:04:16.046Z,8.25
2022-11-26T01:07:03.572Z,7.97
2022-11-26T01:09:50.764Z,8.30
2022-11-26T01:12:38.216Z,7.08
2022-11-26T01:15:27.005Z,7.58
2022-11-26T01:18:20.401Z,8.80
2022-11-26T01:21:09.075Z,8.63
2022-11-26T01:23:57.458Z,9.53
2022-11-26T01:26:45.724Z,8.80
2022-11-26T01:29:33.094Z,8.78
2022-11-26T01:32:22.323Z,9.03
2022-11-26T01:35:09.597Z,9.35
2022-11-26T01:37:57.231Z,8.68
2022-11-26T01:41:09.425Z,8.83
2022-11-26T01:43:58.581Z,9.60
2022-11-26T01:46:46.576Z,9.18
2022-11-26T01:49:35.729Z,10.68
2022-11-26T01:52:25.648Z,8.88
2022-11-26T01:55:16.075Z,9.05
2022-11-26T01:58:04.848Z,8.95
2022-11-26T02:00:52.787Z,8.98
2022-11-26T02:03:43.342Z,9.20
2022-11-26T02:06:33.539Z,8.98
2022-11-26T02:09:21.445Z,9.18
2022-11-26T02:12:08.891Z,9.60
2022-11-26T02:14:56.686Z,8.78
2022-11-26T02:17:49.667Z,8.15
2022-11-26T02:20:49.386Z,8.75
2022-11-26T02:23:58.068Z,8.88
2022-11-26T02:26:51.095Z,9.00
2022-11-26T02:29:53.920Z,8.88
2022-11-26T02:33:02.730Z,9.95
2022-11-26T02:35:53.480Z,9.03
2022-11-26T02:38:41.206Z,9.48
2022-11-26T02:41:30.408Z,9.63
2022-11-26T02:44:20.226Z,9.65
2022-11-26T02:47:10.804Z,10.23
2022-11-26T02:50:01.426Z,8.70
2022-11-26T02:52:51.596Z,8.83
2022-11-26T02:55:44.939Z,8.65
2022-11-26T02:58:34.255Z,8.73
2022-11-26T03:01:39.214Z,8.73
2022-11-26T03:04:33.032Z,8.10
2022-11-26T03:07:21.564Z,8.03
2022-11-26T03:10:09.192Z,7.42
2022-11-26T03:12:56.405Z,8.83
2022-11-26T03:15:43.942Z,8.88
2022-11-26T03:18:31.593Z,7.60
2022-11-26T03:21:18.833Z,7.47
2022-11-26T03:24:06.232Z,7.97
2022-11-26T03:26:53.988Z,8.58
2022-11-26T03:29:41.050Z,8.05
2022-11-26T03:32:28.280Z,8.20
2022-11-26T03:35:15.809Z,8.90
2022-11-26T03:38:03.255Z,7.22
2022-11-26T03:40:59.581Z,7.47
2022-11-26T03:43:47.701Z,9.20
2022-11-26T03:46:34.843Z,9.05
2022-11-26T03:49:22.373Z,8.20
2022-11-26T03:52:09.938Z,7.17
2022-11-26T03:54:57.138Z,7.50
2022-11-26T03:57:44.353Z,7.95
2022-11-26T04:00:31.649Z,7.55
2022-11-26T04:03:19.358Z,8.65
2022-11-26T04:06:06.672Z,8.73
2022-11-26T04:08:53.867Z,8.08
2022-11-26T04:11:41.255Z,7.80
2022-11-26T04:14:28.689Z,7.40
2022-11-26T04:17:15.885Z,8.60
2022-11-26T04:20:03.237Z,8.65
2022-11-26T04:22:50.861Z,8.85
2022-11-26T04:25:38.196Z,7.78
2022-11-26T04:28:25.340Z,7.37
2022-11-26T04:31:13.063Z,7.80
2022-11-26T04:34:00.306Z,7.53
2022-11-26T04:36:47.738Z,8.28
2022-11-26T04:39:35.364Z,8.63
2022-11-26T04:42:22.899Z,8.20
2022-11-26T04:45:11.111Z,9.20
2022-11-26T04:47:58.322Z,8.00
2022-11-26T04:50:45.752Z,8.88
2022-11-26T04:53:33.101Z,8.50
2022-11-26T04:56:20.570Z,8.23
2022-11-26T04:59:08.537Z,9.18
2022-11-26T05:01:55.965Z,8.88
2022-11-26T05:04:43.098Z,8.70
2022-11-26T05:07:30.425Z,8.63
2022-11-26T05:10:18.189Z,9.05
2022-11-26T05:13:05.299Z,9.78
2022-11-26T05:15:52.708Z,9.20
2022-11-26T05:18:39.966Z,9.20
2022-11-26T05:21:27.192Z,8.75
2022-11-26T05:24:14.751Z,10.95
2022-11-26T05:27:01.913Z,10.80
2022-11-26T05:29:49.437Z,10.70
2022-11-26T05:32:36.813Z,8.73
2022-11-26T05:35:23.953Z,8.78
2022-11-26T05:38:11.488Z,9.75
2022-11-26T05:40:58.871Z,9.38
2022-11-26T05:43:46.009Z,9.05
2022-11-26T05:46:33.242Z,9.55
2022-11-26T05:49:20.885Z,8.45
2022-11-26T05:52:08.251Z,9.48
2022-11-26T05:54:55.691Z,8.08
2022-11-26T05:57:42.925Z,8.38
2022-11-26T06:00:30.268Z,9.85
2022-11-26T06:03:20.333Z,9.88
2022-11-26T06:06:06.684Z,9.13
2022-11-26T06:08:53.862Z,8.93
2022-11-26T06:11:41.246Z,9.50
2022-11-26T06:14:28.574Z,8.93
2022-11-26T06:17:15.986Z,9.48
2022-11-26T06:20:03.437Z,8.20
2022-11-26T06:22:50.853Z,7.55
2022-11-26T06:25:39.795Z,7.53
2022-11-26T06:28:27.538Z,8.58
2022-11-26T06:31:15.272Z,9.53
2022-11-26T06:34:02.792Z,8.53
2022-11-26T06:36:50.322Z,8.40
2022-11-26T06:39:37.488Z,8.70
2022-11-26T06:42:24.636Z,8.60
2022-11-26T06:45:12.049Z,7.67
2022-11-26T06:47:59.520Z,8.45
2022-11-26T06:50:47.118Z,7.12
2022-11-26T06:53:34.616Z,8.18
2022-11-26T06:56:22.093Z,8.13
2022-11-26T06:59:09.439Z,7.90
2022-11-26T07:01:56.971Z,8.10
2022-11-26T07:04:44.440Z,8.65
2022-11-26T07:07:31.632Z,9.00
2022-11-26T07:10:20.192Z,6.85
2022-11-26T07:13:07.694Z,7.58
2022-11-26T07:15:55.217Z,7.00
2022-11-26T07:18:42.640Z,6.95
2022-11-26T07:21:30.848Z,7.35
2022-11-26T07:24:18.251Z,7.20
2022-11-26T07:27:05.498Z,6.55
2022-11-26T07:29:53.005Z,7.12
2022-11-26T07:32:40.448Z,7.55
2022-11-26T07:35:27.566Z,7.42
2022-11-26T07:38:15.032Z,7.10
2022-11-26T07:41:08.068Z,7.60
2022-11-26T07:43:56.134Z,6.78
2022-11-26T07:46:43.503Z,7.50
2022-11-26T07:49:30.536Z,6.83
2022-11-26T07:52:17.764Z,6.35
2022-11-26T07:55:11.033Z,7.03
2022-11-26T07:57:54.712Z,6.67
2022-11-26T08:00:42.122Z,7.70
2022-11-26T08:03:29.554Z,7.80
2022-11-26T08:06:19.895Z,7.08
2022-11-26T08:09:07.577Z,6.83
2022-11-26T08:11:54.682Z,8.23
2022-11-26T08:14:43.887Z,7.85
2022-11-26T08:17:31.130Z,9.25
2022-11-26T08:20:18.685Z,8.78
2022-11-26T08:23:05.865Z,7.70
2022-11-26T08:26:20.515Z,7.03
2022-11-26T08:28:46.953Z,9.20
2022-11-26T08:31:34.934Z,8.33
2022-11-26T08:34:22.241Z,10.00
2022-11-26T08:37:09.660Z,10.53
2022-11-26T08:39:57.216Z,11.28
2022-11-26T08:42:44.804Z,10.05
2022-11-26T08:45:31.976Z,9.93
2022-11-26T08:48:19.226Z,10.08
2022-11-26T08:51:09.733Z,9.83
2022-11-26T08:53:57.092Z,10.80
2022-11-26T08:56:44.343Z,10.63
2022-11-26T08:59:31.218Z,12.70
2022-11-26T09:02:19.229Z,13.10
2022-11-26T09:05:07.195Z,14.40
2022-11-26T09:07:54.986Z,16.17
2022-11-26T09:10:42.371Z,16.23
2022-11-26T09:13:30.101Z,16.82
2022-11-26T09:16:17.368Z,16.75
2022-11-26T09:19:06.154Z,15.98
2022-11-26T09:21:53.546Z,18.05
2022-11-26T09:24:41.320Z,16.55
2022-11-26T09:27:28.531Z,16.45
2022-11-26T09:30:16.265Z,18.85
2022-11-26T09:33:07.358Z,16.73
2022-11-26T09:35:54.834Z,17.42
2022-11-26T09:38:42.473Z,16.57
2022-11-26T09:41:47.963Z,14.25
2022-11-26T09:44:55.044Z,11.25
2022-11-26T09:47:45.612Z,9.73
2022-11-26T09:50:38.553Z,9.78
2022-11-26T09:53:29.388Z,10.15
2022-11-26T09:56:19.568Z,10.90
2022-11-26T09:59:09.734Z,10.88
2022-11-26T10:01:57.320Z,11.93
2022-11-26T10:04:44.957Z,11.50
2022-11-26T10:07:53.913Z,10.80
2022-11-26T10:10:53.223Z,11.35
2022-11-26T10:13:46.656Z,10.50
2022-11-26T10:16:59.754Z,10.50
2022-11-26T10:19:53.164Z,10.05
2022-11-26T10:22:57.070Z,9.25
2022-11-26T10:25:54.825Z,8.50
2022-11-26T10:28:52.297Z,10.45
2022-11-26T10:37:16.998Z,7.08
2022-11-26T10:40:26.871Z,5.92
2022-11-26T10:43:19.927Z,5.90
2022-11-26T10:46:07.337Z,5.80
2022-11-26T10:48:54.562Z,6.20
2022-11-26T10:51:41.927Z,5.53
2022-11-26T10:54:32.242Z,5.95
2022-11-26T10:57:20.738Z,5.37
2022-11-26T11:00:09.885Z,5.62
2022-11-26T11:02:57.659Z,5.75
2022-11-26T11:05:45.724Z,6.12
2022-11-26T11:08:33.972Z,5.70
2022-11-26T11:11:32.092Z,6.15
2022-11-26T11:14:31.807Z,6.05
2022-11-26T11:17:34.529Z,5.03
2022-11-26T11:20:27.885Z,6.35
2022-11-26T11:23:39.949Z,5.58
2022-11-26T11:26:19.239Z,5.45
2022-11-26T11:29:06.550Z,4.75
2022-11-26T11:31:58.757Z,4.95
2022-11-26T11:34:47.159Z,4.87
2022-11-26T11:37:34.620Z,5.25
2022-11-26T11:40:28.820Z,4.60
2022-11-26T11:43:19.710Z,5.12
2022-11-26T11:46:16.126Z,5.22
2022-11-26T11:49:18.478Z,5.40
2022-11-26T11:52:28.535Z,5.85
2022-11-26T11:55:56.939Z,6.28
2022-11-26T11:59:05.609Z,5.90
2022-11-26T12:02:16.624Z,6.00
2022-11-26T12:05:15.802Z,6.35
2022-11-26T12:08:15.338Z,6.20
2022-11-26T12:11:39.145Z,6.50
2022-11-26T12:14:35.296Z,6.00
2022-11-26T12:17:50.059Z,6.55
2022-11-26T12:20:44.172Z,6.90
2022-11-26T12:23:55.338Z,6.85
2022-11-26T12:26:48.880Z,7.10
2022-11-26T12:29:45.390Z,7.80
2022-11-26T12:32:42.433Z,7.55
2022-11-26T12:35:36.215Z,7.10
2022-11-26T12:38:26.701Z,6.85
2022-11-26T12:41:25.598Z,7.05
2022-11-26T12:44:31.535Z,7.10
2022-11-26T12:47:25.108Z,6.95
2022-11-26T12:50:27.488Z,6.05
2022-11-26T12:53:26.837Z,6.55
2022-11-26T12:56:26.297Z,5.97
2022-11-26T12:59:32.019Z,6.78
2022-11-26T13:02:28.618Z,7.40
2022-11-26T13:05:35.616Z,7.87
2022-11-26T13:08:42.546Z,7.17
2022-11-26T13:11:45.042Z,7.00
2022-11-26T13:14:35.454Z,8.50
2022-11-26T13:17:25.714Z,8.88
2022-11-26T13:20:31.233Z,9.75
2022-11-26T13:23:44.524Z,8.88
2022-11-26T13:27:01.526Z,7.33
2022-11-26T13:29:53.178Z,6.00
2022-11-26T13:33:01.799Z,6.22
2022-11-26T13:36:13.844Z,4.95
2022-11-26T13:39:35.525Z,6.47
2022-11-26T13:42:49.698Z,8.28
2022-11-26T13:46:03.197Z,6.30
2022-11-26T13:49:16.374Z,6.08
2022-11-26T13:52:12.707Z,6.10
2022-11-26T13:55:09.077Z,5.67
2022-11-26T13:57:59.542Z,6.17
2022-11-26T14:00:46.712Z,6.10
2022-11-26T14:03:49.148Z,6.10
2022-11-26T14:06:36.789Z,5.85
2022-11-26T14:09:47.011Z,7.00
2022-11-26T14:13:07.903Z,5.03
2022-11-26T14:16:09.775Z,6.05
2022-11-26T14:18:59.349Z,6.50
2022-11-26T14:22:02.084Z,6.12
2022-11-26T14:24:52.600Z,6.12
2022-11-26T14:27:57.244Z,6.12
2022-11-26T14:30:44.095Z,5.90
2022-11-26T14:33:32.988Z,6.25
2022-11-26T14:36:26.306Z,6.03
2022-11-26T14:39:17.054Z,5.87
2022-11-26T14:42:06.568Z,6.08
2022-11-26T14:45:08.173Z,6.62
2022-11-26T14:47:55.529Z,6.17
2022-11-26T14:50:43.898Z,6.53
2022-11-26T14:53:33.932Z,7.03
2022-11-26T14:56:24.157Z,7.10
2022-11-26T14:59:15.095Z,6.25
2022-11-26T15:02:02.761Z,6.30
2022-11-26T15:04:59.733Z,6.30
2022-11-26T15:07:50.337Z,6.15
2022-11-26T15:10:49.741Z,6.17
2022-11-26T15:13:45.675Z,6.72
2022-11-26T15:16:35.942Z,6.47
2022-11-26T15:19:26.646Z,6.50
2022-11-26T15:22:23.315Z,7.60
2022-11-26T15:25:19.897Z,7.28
2022-11-26T15:28:21.356Z,5.62
2022-11-26T15:31:12.251Z,5.92
2022-11-26T15:34:00.220Z,6.72
2022-11-26T15:36:47.716Z,7.05
2022-11-26T15:39:34.973Z,7.25
2022-11-26T15:42:32.182Z,6.33
2022-11-26T15:48:09.737Z,6.05
2022-11-26T15:51:00.286Z,5.92
2022-11-26T15:53:50.437Z,6.55
2022-11-26T15:56:39.895Z,6.90
2022-11-26T15:59:30.009Z,7.30
2022-11-26T16:02:23.224Z,7.50
2022-11-26T16:05:27.197Z,7.90
2022-11-26T16:08:30.363Z,7.75
2022-11-26T16:11:23.882Z,7.60
2022-11-26T16:14:35.632Z,6.75
2022-11-26T16:17:23.125Z,7.45
2022-11-26T16:20:25.946Z,6.97
2022-11-26T16:23:18.923Z,5.58
2022-11-26T16:26:19.257Z,6.90
2022-11-26T16:29:09.852Z,6.28
2022-11-26T16:31:57.430Z,6.53
2022-11-26T16:34:45.581Z,7.87
2022-11-26T16:37:33.456Z,6.90
2022-11-26T16:40:21.360Z,7.37
2022-11-26T16:43:08.519Z,6.28
2022-11-26T16:45:57.188Z,6.67
2022-11-26T16:48:45.862Z,6.85
2022-11-26T16:51:33.230Z,6.58
2022-11-26T16:54:20.378Z,6.03
2022-11-26T16:57:09.754Z,6.47
2022-11-26T16:59:59.922Z,6.87
2022-11-26T17:02:47.773Z,6.60
2022-11-26T17:05:34.765Z,7.47
2022-11-26T17:08:22.065Z,7.92
2022-11-26T17:11:12.871Z,7.42
2022-11-26T17:14:00.318Z,7.80
2022-11-26T17:16:48.941Z,7.35
2022-11-26T17:19:36.007Z,7.17
2022-11-26T17:22:25.472Z,7.45
2022-11-26T17:25:13.147Z,7.05
2022-11-26T17:28:00.447Z,6.30
2022-11-26T17:30:48.091Z,6.87
2022-11-26T17:33:35.366Z,14.93
2022-11-26T17:36:24.847Z,9.05
2022-11-26T17:39:12.862Z,6.10
2022-11-26T17:42:00.321Z,5.47
2022-11-26T17:44:48.629Z,8.40
2022-11-26T17:47:35.875Z,8.00
2022-11-26T17:50:26.224Z,9.60
2022-11-26T17:53:13.773Z,12.68
2022-11-26T17:56:01.006Z,8.48
2022-11-26T17:58:48.919Z,8.48
2022-11-26T18:01:36.448Z,8.13
2022-11-26T18:04:24.363Z,6.95
2022-11-26T18:07:14.825Z,7.08
2022-11-26T18:10:02.040Z,5.85
2022-11-26T18:12:51.606Z,6.30
2022-11-26T18:15:39.277Z,7.08
2022-11-26T18:18:27.179Z,6.00
2022-11-26T18:21:14.574Z,6.47
2022-11-26T18:24:02.165Z,6.33
2022-11-26T18:26:49.266Z,7.35
2022-11-26T18:29:36.955Z,8.10
2022-11-26T18:32:24.453Z,8.68
2022-11-26T18:35:12.989Z,8.75
2022-11-26T18:38:00.226Z,7.97
2022-11-26T18:40:47.521Z,7.58
2022-11-26T18:43:36.394Z,8.00
2022-11-26T18:46:23.610Z,7.65
2022-11-26T18:49:10.891Z,10.18
2022-11-26T18:51:58.338Z,9.05
2022-11-26T18:54:45.602Z,9.05
2022-11-26T18:57:33.692Z,8.70
2022-11-26T19:00:21.070Z,8.45
2022-11-26T19:03:08.509Z,8.33
2022-11-26T19:05:56.298Z,9.25
2022-11-26T19:08:43.857Z,8.73
2022-11-26T19:11:31.463Z,8.68
2022-11-26T19:14:18.984Z,7.55
2022-11-26T19:17:07.043Z,7.97
2022-11-26T19:19:54.397Z,7.47
2022-11-26T19:22:41.718Z,6.60
2022-11-26T19:25:30.514Z,7.58
2022-11-26T19:28:17.806Z,8.00
2022-11-26T19:31:08.817Z,8.38
2022-11-26T19:34:00.896Z,7.37
2022-11-26T19:36:49.187Z,6.67
2022-11-26T19:39:37.362Z,7.75
2022-11-26T19:42:25.048Z,6.42
2022-11-26T19:45:12.334Z,6.78
2022-11-26T19:47:59.743Z,7.47
2022-11-26T19:50:50.025Z,8.00
2022-11-26T19:53:38.486Z,7.60
2022-11-26T19:56:28.247Z,7.80
2022-11-26T19:59:16.515Z,7.40
2022-11-26T20:02:03.801Z,7.30
2022-11-26T20:04:51.034Z,7.70
2022-11-26T20:07:38.698Z,7.83
2022-11-26T20:10:26.158Z,8.23
2022-11-26T20:13:13.807Z,8.63
2022-11-26T20:16:03.235Z,8.78
2022-11-26T20:18:51.109Z,8.98
2022-11-26T20:21:38.901Z,9.60
2022-11-26T20:24:26.891Z,10.18
2022-11-26T20:27:14.379Z,10.13
2022-11-26T20:30:01.634Z,9.93
2022-11-26T20:32:49.022Z,9.60
2022-11-26T20:35:38.361Z,9.55
2022-11-26T20:38:25.577Z,9.88
2022-11-26T20:41:16.928Z,10.53
2022-11-26T20:44:03.831Z,10.95
2022-11-26T20:46:51.437Z,10.93
2022-11-26T20:49:42.977Z,11.85
2022-11-26T20:52:28.411Z,13.38
2022-11-26T20:55:17.547Z,12.33
2022-11-26T20:58:04.813Z,13.53
2022-11-26T21:00:54.047Z,13.00
2022-11-26T21:03:41.409Z,13.65
2022-11-26T21:06:30.676Z,14.78
2022-11-26T21:09:18.053Z,16.42
2022-11-26T21:12:05.736Z,15.53
2022-11-26T21:14:53.205Z,14.80
2022-11-26T21:17:40.727Z,13.65
2022-11-26T21:20:31.038Z,14.75
2022-11-26T21:23:16.671Z,18.98
2022-11-26T21:26:09.284Z,15.83
2022-11-26T21:28:59.166Z,15.78
2022-11-26T21:31:46.724Z,15.35
2022-11-26T21:34:34.323Z,16.62
2022-11-26T21:37:22.449Z,14.90
2022-11-26T21:40:10.648Z,17.05
2022-11-26T21:42:58.037Z,17.12
2022-11-26T21:45:45.515Z,16.15
2022-11-26T21:48:35.489Z,16.57
2022-11-26T21:51:23.867Z,15.08
2022-11-26T21:54:12.094Z,15.00
2022-11-26T21:56:59.966Z,14.58
2022-11-26T21:59:47.479Z,13.83
2022-11-26T22:02:35.028Z,13.48
2022-11-26T22:05:22.560Z,12.98
2022-11-26T22:08:10.156Z,13.90
2022-11-26T22:10:57.577Z,12.23
2022-11-26T22:13:44.907Z,12.95
2022-11-26T22:16:32.750Z,13.18
2022-11-26T22:19:20.433Z,12.65
2022-11-26T22:22:07.902Z,14.00
2022-11-26T22:24:55.480Z,13.50
2022-11-26T22:27:42.984Z,12.88
2022-11-26T22:30:30.540Z,13.35
2022-11-26T22:33:17.716Z,11.85
2022-11-26T22:36:05.484Z,12.40
2022-11-26T22:38:53.064Z,12.47
2022-11-26T22:41:41.934Z,11.57
2022-11-26T22:44:29.420Z,16.82
2022-11-26T22:47:17.106Z,19.95
2022-11-26T22:50:04.511Z,12.70
2022-11-26T22:52:55.016Z,11.20
2022-11-26T22:55:45.336Z,12.18
2022-11-26T22:58:33.988Z,12.10
2022-11-26T23:01:27.063Z,11.60
2022-11-26T23:04:14.328Z,12.50
2022-11-26T23:07:01.535Z,12.63
2022-11-26T23:09:48.896Z,12.78
2022-11-26T23:12:36.483Z,11.78
2022-11-26T23:15:25.546Z,12.80
2022-11-26T23:18:15.317Z,13.20
2022-11-26T23:21:14.839Z,12.18
2022-11-26T23:24:02.486Z,12.40
2022-11-26T23:26:49.783Z,11.35
2022-11-26T23:29:37.467Z,11.53
2022-11-26T23:32:28.256Z,11.10
2022-11-26T23:35:14.064Z,11.35
2022-11-26T23:38:01.368Z,10.25
2022-11-26T23:41:01.962Z,10.53
2022-11-26T23:43:49.796Z,10.55
2022-11-26T23:46:37.254Z,9.95
2022-11-26T23:49:24.447Z,10.28
2022-11-26T23:52:12.222Z,9.38
2022-11-26T23:54:59.545Z,10.38
2022-11-26T23:57:46.649Z,10.63
